Terminal Aerodrome Forecast
Issued by NWS Cleveland, OH

Current Version | Previous Version | Text Only | Print | Product List | Glossary On
Versions: 1 2 3 4 5 6 7 8 9 10 11 12 13 14 15 16
188
FTUS41 KCLE 221737
TAFMFD
TAF
KMFD 221737Z 2218/2318 24013G23KT P6SM -SHRA VCTS SCT040CB BKN090
      TEMPO 2219/2221 5SM -RA BKN030 OVC060
     FM230000 29011KT P6SM VCSH SCT025 BKN060
     FM230200 30010KT P6SM SCT090
     FM230600 30005KT P6SM SKC
     FM231600 30010KT P6SM BKN040=

USA.gov is the U.S. government's official web portal to all federal, state and local government web resources and services.